Time;durP1;ratioP1;P1;durP2;ratioP2;P2;SDS_P1;SDS_P2;PMS_P1;PMS_P2;Temp;Humidity;BMP_temperature;BMP_pressure;BME280_temperature;BME280_humidity;BME280_pressure;Samples;Min_cycle;Max_cycle;Signal;HPM_P1;HPM_P2
2022/07/28 00:00:00;;;;;;;0.85;0.57;;;14.10;99.90;;;;;;5022110;28;20025;-79
2022/07/28 00:02:25;;;;;;;5.05;0.60;;;14.10;99.90;;;;;;5004878;28;20437;-79
2022/07/28 00:04:51;;;;;;;0.82;0.82;;;;;;;;;;5021877;28;20022;-79
2022/07/28 00:07:17;;;;;;;4.30;1.08;;;14.10;99.90;;;;;;5004238;28;20032;-79
2022/07/28 00:09:43;;;;;;;0.50;0.45;;;14.20;99.90;;;;;;5022126;28;20053;-79
2022/07/28 00:12:08;;;;;;;0.88;0.50;;;14.10;99.90;;;;;;5004110;28;20129;-79
2022/07/28 00:14:34;;;;;;;1.42;0.80;;;14.30;99.90;;;;;;5000999;28;20050;-79
2022/07/28 00:17:01;;;;;;;0.38;0.38;;;14.30;99.90;;;;;;5000834;28;20106;-79
2022/07/28 00:19:26;;;;;;;1.98;0.60;;;14.40;99.90;;;;;;5000832;28;20093;-79
2022/07/28 00:21:52;;;;;;;0.50;0.50;;;14.40;99.90;;;;;;4999045;28;20050;-79
2022/07/28 00:24:18;;;;;;;3.35;1.30;;;14.50;99.90;;;;;;4999980;28;20081;-79
2022/07/28 00:26:44;;;;;;;0.47;0.47;;;14.60;99.90;;;;;;5003065;28;20483;-79
2022/07/28 00:29:11;;;;;;;0.50;0.40;;;;;;;;;;4999494;28;20045;-79
2022/07/28 00:31:37;;;;;;;0.68;0.68;;;14.70;99.90;;;;;;4999112;28;20035;-79
2022/07/28 00:34:02;;;;;;;0.60;0.60;;;14.70;99.90;;;;;;4997964;28;20089;-79
2022/07/28 00:36:28;;;;;;;0.80;0.60;;;14.90;99.90;;;;;;5000830;28;20026;-79
2022/07/28 00:38:54;;;;;;;0.50;0.50;;;14.90;99.90;;;;;;5001067;28;20014;-79
2022/07/28 00:41:21;;;;;;;0.77;0.77;;;15.00;99.90;;;;;;4996306;28;20041;-79
2022/07/28 00:43:50;;;;;;;0.65;0.65;;;15.10;99.90;;;;;;4995886;28;20109;-79
2022/07/28 00:46:19;;;;;;;0.95;0.88;;;15.10;99.90;;;;;;4998082;28;20141;-79
2022/07/28 00:48:47;;;;;;;0.88;0.88;;;15.10;99.90;;;;;;4996808;28;20117;-79
2022/07/28 00:51:17;;;;;;;1.98;0.70;;;15.10;99.90;;;;;;4998141;28;20525;-79
2022/07/28 00:53:44;;;;;;;2.50;0.52;;;15.00;99.90;;;;;;4997565;28;20030;-79
2022/07/28 00:56:10;;;;;;;1.00;0.73;;;15.00;99.90;;;;;;4996447;28;20026;-79
2022/07/28 00:58:37;;;;;;;0.85;0.85;;;14.90;99.90;;;;;;4995582;28;20497;-79
2022/07/28 01:01:04;;;;;;;0.60;0.60;;;14.90;99.90;;;;;;4997436;28;20023;-79
2022/07/28 01:03:31;;;;;;;0.25;0.25;;;14.90;99.90;;;;;;4998700;28;20468;-79
2022/07/28 01:05:57;;;;;;;0.40;0.40;;;;;;;;;;4999114;28;20104;-79
2022/07/28 01:08:27;;;;;;;0.80;0.80;;;15.00;99.90;;;;;;4996338;28;20052;-80
2022/07/28 01:11:03;;;;;;;0.63;0.63;;;15.00;99.90;;;;;;4996265;28;20109;-80
2022/07/28 01:13:53;;;;;;;0.57;0.52;;;15.00;99.90;;;;;;4996169;28;20030;-80
2022/07/28 01:16:18;;;;;;;;;;;15.00;99.90;;;;;;4975908;28;20069;-81
2022/07/28 01:19:02;;;;;;;0.30;0.30;;;15.00;99.90;;;;;;4991853;28;19969;-80
2022/07/28 01:21:33;;;;;;;0.30;0.30;;;15.00;99.90;;;;;;4976754;28;20019;-79
2022/07/28 01:24:24;;;;;;;0.50;0.50;;;14.90;99.90;;;;;;4976702;28;20022;-80
2022/07/28 01:26:59;;;;;;;0.45;0.45;;;14.80;99.90;;;;;;4977880;28;20105;-81
2022/07/28 01:30:01;;;;;;;0.50;0.50;;;14.80;99.90;;;;;;4977970;28;20023;-79
2022/07/28 01:32:45;;;;;;;0.15;0.15;;;14.70;99.90;;;;;;4976618;28;20117;-79
2022/07/28 01:35:20;;;;;;;0.73;0.73;;;14.70;99.90;;;;;;4978137;28;20033;-80
2022/07/28 01:37:50;;;;;;;1.55;1.13;;;14.70;99.90;;;;;;4978832;28;20022;-80
2022/07/28 01:40:19;;;;;;;0.47;0.47;;;14.50;99.90;;;;;;4979250;28;20033;-80
2022/07/28 01:42:50;;;;;;;0.50;0.50;;;14.20;99.90;;;;;;4979485;28;20022;-80
2022/07/28 01:45:18;;;;;;;2.05;1.23;;;14.10;99.90;;;;;;4982739;28;20758;-80
2022/07/28 01:47:46;;;;;;;1.50;0.75;;;14.00;99.90;;;;;;4982944;28;20054;-80
2022/07/28 01:50:15;;;;;;;3.33;0.60;;;14.00;99.90;;;;;;4981866;28;20035;-80
2022/07/28 01:52:43;;;;;;;0.30;0.30;;;13.90;99.90;;;;;;4982703;28;20030;-80
2022/07/28 01:55:11;;;;;;;1.85;0.40;;;13.80;99.90;;;;;;4983243;28;20400;-80
2022/07/28 01:57:37;;;;;;;0.55;0.55;;;;;;;;;;4982786;28;20494;-80
2022/07/28 02:00:08;;;;;;;0.30;0.30;;;13.60;99.90;;;;;;4984238;28;20423;-80
2022/07/28 02:02:36;;;;;;;0.98;0.95;;;13.50;99.90;;;;;;4981821;28;20030;-80
2022/07/28 02:05:03;;;;;;;2.88;0.60;;;13.40;99.90;;;;;;4981442;28;20027;-80
2022/07/28 02:07:30;;;;;;;2.25;1.30;;;13.40;99.90;;;;;;4982391;28;20105;-80
2022/07/28 02:09:57;;;;;;;0.50;0.50;;;13.40;99.90;;;;;;4980930;28;20026;-80
2022/07/28 02:12:25;;;;;;;0.60;0.50;;;13.30;99.90;;;;;;4979512;28;20077;-80
2022/07/28 02:14:52;;;;;;;0.50;0.50;;;13.20;99.90;;;;;;4999016;28;20045;-79
2022/07/28 02:17:20;;;;;;;0.32;0.32;;;13.20;99.90;;;;;;5002617;28;20104;-79
2022/07/28 02:19:48;;;;;;;0.50;0.50;;;13.20;99.90;;;;;;5002768;28;20032;-79
2022/07/28 02:22:15;;;;;;;0.38;0.38;;;13.10;99.90;;;;;;5020192;28;20022;-79
2022/07/28 02:24:44;;;;;;;0.70;0.70;;;13.00;99.90;;;;;;5020086;28;20010;-80
2022/07/28 02:27:47;;;;;;;9.98;0.73;;;13.00;99.90;;;;;;5022269;28;20037;-80
2022/07/28 02:30:16;;;;;;;1.65;1.55;;;12.90;99.90;;;;;;5023466;28;20034;-79
2022/07/28 02:32:44;;;;;;;0.35;0.35;;;12.80;99.90;;;;;;5023661;28;20053;-79
2022/07/28 02:35:21;;;;;;;0.93;0.93;;;12.70;99.90;;;;;;5019400;28;20033;-80
2022/07/28 02:37:52;;;;;;;1.00;0.73;;;12.70;99.90;;;;;;5019669;28;20072;-80
2022/07/28 02:40:21;;;;;;;0.60;0.57;;;12.60;99.90;;;;;;5020286;28;20025;-78
2022/07/28 02:42:50;;;;;;;1.20;1.17;;;12.60;99.90;;;;;;5018619;28;20022;-79
2022/07/28 02:45:19;;;;;;;0.30;0.30;;;12.60;99.90;;;;;;5017940;28;20079;-78
2022/07/28 02:47:50;;;;;;;1.00;1.00;;;12.50;99.90;;;;;;5018869;28;20105;-80
2022/07/28 02:50:21;;;;;;;0.52;0.52;;;12.50;99.90;;;;;;5018384;28;20022;-79
2022/07/28 02:52:49;;;;;;;0.40;0.40;;;12.50;99.90;;;;;;5002193;28;20061;-80
2022/07/28 02:55:16;;;;;;;1.23;0.95;;;12.40;99.90;;;;;;5019674;28;20026;-79
2022/07/28 02:57:44;;;;;;;1.52;0.40;;;12.40;99.90;;;;;;5020006;28;20072;-79
2022/07/28 03:00:10;;;;;;;6.18;0.65;;;12.40;99.90;;;;;;5018175;28;20026;-80
2022/07/28 03:02:38;;;;;;;0.50;0.50;;;12.40;99.90;;;;;;5017325;28;20034;-79
2022/07/28 03:05:04;;;;;;;0.40;0.40;;;12.40;99.90;;;;;;5017305;28;20018;-79
2022/07/28 03:07:31;;;;;;;1.50;1.40;;;12.30;99.90;;;;;;5017751;28;20026;-79
2022/07/28 03:09:59;;;;;;;2.95;1.55;;;12.40;99.90;;;;;;5018286;28;20113;-79
2022/07/28 03:12:25;;;;;;;2.83;1.10;;;12.30;99.90;;;;;;5016964;28;20034;-79
2022/07/28 03:14:51;;;;;;;0.85;0.82;;;;;;;;;;5017174;28;20509;-79
2022/07/28 03:17:18;;;;;;;3.72;1.33;;;12.20;99.90;;;;;;5017692;28;20026;-81
2022/07/28 03:19:44;;;;;;;1.58;0.80;;;12.20;99.90;;;;;;5017856;28;20037;-78
2022/07/28 03:22:13;;;;;;;0.63;0.63;;;12.20;99.90;;;;;;5017231;28;20508;-77
2022/07/28 03:24:43;;;;;;;1.25;1.00;;;12.10;99.90;;;;;;5014355;28;20442;-80
2022/07/28 03:27:19;;;;;;;1.05;0.90;;;12.10;99.90;;;;;;5020169;28;20025;-79
2022/07/28 03:29:58;;;;;;;0.77;0.77;;;12.10;99.90;;;;;;5030609;28;20026;-77
2022/07/28 03:32:27;;;;;;;0.30;0.30;;;12.00;99.90;;;;;;5027688;28;20041;-81
2022/07/28 03:34:53;;;;;;;0.43;0.43;;;;;;;;;;5033092;28;20034;-82
2022/07/28 03:37:37;;;;;;;0.43;0.43;;;12.00;99.90;;;;;;5009765;28;20292;-79
2022/07/28 03:40:04;;;;;;;1.35;0.75;;;12.00;99.90;;;;;;5025427;28;20030;-79
2022/07/28 03:42:30;;;;;;;0.43;0.43;;;12.00;99.90;;;;;;5022313;28;20033;-79
2022/07/28 03:44:56;;;;;;;0.73;0.73;;;12.00;99.90;;;;;;5017784;28;20067;-79
2022/07/28 03:47:22;;;;;;;1.13;0.95;;;12.00;99.90;;;;;;5000156;28;20021;-80
2022/07/28 03:49:49;;;;;;;0.30;0.30;;;12.00;99.90;;;;;;5017220;28;20022;-80
2022/07/28 03:52:15;;;;;;;0.20;0.20;;;12.00;99.90;;;;;;5018424;28;20030;-79
2022/07/28 03:54:41;;;;;;;0.22;0.22;;;;;;;;;;4999957;28;20022;-80
2022/07/28 03:57:08;;;;;;;2.00;1.00;;;12.00;99.90;;;;;;5015981;28;20475;-82
2022/07/28 03:59:34;;;;;;;0.60;0.60;;;12.00;99.90;;;;;;5020724;28;20057;-77
2022/07/28 04:02:01;;;;;;;1.35;1.25;;;12.00;99.90;;;;;;5023646;28;20030;-80
2022/07/28 04:04:27;;;;;;;0.45;0.45;;;12.00;99.90;;;;;;5021569;28;20026;-79
2022/07/28 04:06:53;;;;;;;0.45;0.45;;;12.00;99.90;;;;;;5022369;28;20041;-78
2022/07/28 04:09:22;;;;;;;15.93;0.50;;;12.00;99.90;;;;;;5024366;28;20471;-78
2022/07/28 04:11:47;;;;;;;0.38;0.38;;;12.00;99.90;;;;;;5025290;28;20041;-78
2022/07/28 04:14:16;;;;;;;0.20;0.20;;;12.10;99.90;;;;;;5024976;28;20041;-80
2022/07/28 04:16:43;;;;;;;1.13;0.68;;;12.10;99.90;;;;;;5023302;28;20034;-79
2022/07/28 04:19:09;;;;;;;0.93;0.93;;;12.00;99.90;;;;;;5023966;28;20109;-78
2022/07/28 04:21:35;;;;;;;0.40;0.40;;;12.00;99.90;;;;;;5024698;28;20069;-78
2022/07/28 04:24:03;;;;;;;12.13;0.75;;;12.00;99.90;;;;;;5024768;28;20026;-77
2022/07/28 04:26:29;;;;;;;0.30;0.30;;;12.00;99.90;;;;;;5025364;28;20045;-78
2022/07/28 04:28:55;;;;;;;1.15;1.08;;;12.10;99.90;;;;;;5024313;28;20471;-77
2022/07/28 04:31:22;;;;;;;0.20;0.20;;;12.10;99.90;;;;;;5004075;28;20037;-80
2022/07/28 04:33:49;;;;;;;4.57;1.05;;;12.20;99.90;;;;;;5004616;28;20018;-80
2022/07/28 04:36:16;;;;;;;0.50;0.50;;;12.20;99.90;;;;;;5022017;28;20080;-80
2022/07/28 04:38:42;;;;;;;0.28;0.28;;;12.20;99.90;;;;;;5005548;28;20022;-79
2022/07/28 04:41:18;;;;;;;0.35;0.35;;;12.30;99.90;;;;;;5006080;28;20026;-78
2022/07/28 04:43:44;;;;;;;0.30;0.30;;;12.40;99.90;;;;;;5004461;28;20030;-82
2022/07/28 04:46:09;;;;;;;0.30;0.30;;;12.60;99.90;;;;;;5022156;28;20029;-80
2022/07/28 04:48:35;;;;;;;0.20;0.20;;;12.70;99.90;;;;;;5002958;28;20521;-77
2022/07/28 04:51:01;;;;;;;0.80;0.30;;;13.10;99.90;;;;;;5017854;28;20034;-77
2022/07/28 04:53:28;;;;;;;2.00;0.70;;;13.40;99.90;;;;;;5016900;28;20109;-78
2022/07/28 04:55:55;;;;;;;2.70;0.75;;;13.70;99.90;;;;;;4999852;28;20026;-78
2022/07/28 04:58:22;;;;;;;0.80;0.50;;;13.80;99.90;;;;;;5018101;28;20022;-80
2022/07/28 05:00:48;;;;;;;0.75;0.40;;;13.80;99.90;;;;;;5019451;28;20394;-78
2022/07/28 05:03:13;;;;;;;0.40;0.35;;;13.70;99.90;;;;;;5019999;28;20026;-79
2022/07/28 05:05:39;;;;;;;0.38;0.38;;;;;;;;;;5019637;28;20057;-79
2022/07/28 05:08:05;;;;;;;0.20;0.20;;;13.50;99.90;;;;;;5018116;28;20022;-77
2022/07/28 05:10:31;;;;;;;3.65;1.33;;;13.60;99.90;;;;;;5016992;28;20030;-78
2022/07/28 05:12:56;;;;;;;0.47;0.47;;;13.60;99.90;;;;;;5016329;28;20029;-78
2022/07/28 05:15:22;;;;;;;0.13;0.13;;;13.70;99.90;;;;;;5015796;28;20475;-78
2022/07/28 05:17:48;;;;;;;0.52;0.50;;;13.70;99.90;;;;;;5015884;28;20101;-78
2022/07/28 05:20:14;;;;;;;0.13;0.13;;;13.70;99.90;;;;;;5015656;28;20030;-79
2022/07/28 05:22:44;;;;;;;0.95;0.50;;;13.90;99.90;;;;;;4997806;28;20031;-80
2022/07/28 05:25:28;;;;;;;0.20;0.20;;;13.90;99.90;;;;;;5015564;28;20390;-79
2022/07/28 05:27:54;;;;;;;0.30;0.30;;;14.00;99.90;;;;;;5015225;28;20022;-78
2022/07/28 05:30:20;;;;;;;0.40;0.20;;;14.20;99.90;;;;;;5015121;28;20030;-79
2022/07/28 05:32:48;;;;;;;1.17;0.77;;;14.30;99.90;;;;;;5015583;28;20040;-77
2022/07/28 05:35:14;;;;;;;0.55;0.55;;;14.40;99.90;;;;;;4999111;28;20080;-81
2022/07/28 05:37:40;;;;;;;0.57;0.57;;;14.50;99.90;;;;;;4997695;28;20040;-78
2022/07/28 05:40:12;;;;;;;0.30;0.30;;;14.60;99.90;;;;;;4997918;28;20026;-78
2022/07/28 05:42:39;;;;;;;0.68;0.45;;;14.80;99.90;;;;;;5015222;28;20050;-83
2022/07/28 05:45:07;;;;;;;0.93;0.32;;;14.90;99.90;;;;;;4997594;28;20053;-79
2022/07/28 05:47:46;;;;;;;0.40;0.40;;;15.00;99.90;;;;;;4996692;28;20573;-83
2022/07/28 05:50:13;;;;;;;;;;;15.20;99.90;;;;;;5015363;28;20029;-79
2022/07/28 05:52:39;;;;;;;0.32;0.30;;;;;;;;;;5015266;28;19948;-79
2022/07/28 05:55:06;;;;;;;0.40;0.40;;;15.60;99.90;;;;;;5015132;28;20036;-78
2022/07/28 05:57:31;;;;;;;2.40;0.40;;;15.60;99.90;;;;;;4997372;28;20026;-79
2022/07/28 05:59:57;;;;;;;0.30;0.30;;;15.70;99.90;;;;;;4997446;28;20029;-82
2022/07/28 06:02:23;;;;;;;0.40;0.40;;;15.80;99.90;;;;;;5014362;28;20029;-86
2022/07/28 06:04:48;;;;;;;0.20;0.20;;;15.90;99.90;;;;;;5014800;28;20029;-78
2022/07/28 06:07:14;;;;;;;0.28;0.28;;;16.00;99.90;;;;;;4997010;28;20517;-77
2022/07/28 06:09:40;;;;;;;0.50;0.50;;;;;;;;;;4997013;28;20030;-77
2022/07/28 06:12:06;;;;;;;5.65;1.35;;;16.80;99.90;;;;;;5014811;28;20437;-83
2022/07/28 06:14:32;;;;;;;0.73;0.73;;;16.20;99.90;;;;;;5014617;28;20029;-80
2022/07/28 06:16:58;;;;;;;0.45;0.45;;;16.30;99.90;;;;;;5014386;28;20406;-79
2022/07/28 06:19:23;;;;;;;0.93;0.90;;;16.30;99.90;;;;;;4996781;28;20084;-78
2022/07/28 06:21:51;;;;;;;1.55;1.00;;;16.30;99.90;;;;;;5013873;28;20092;-78
2022/07/28 06:24:17;;;;;;;1.15;0.63;;;16.40;99.90;;;;;;5014588;28;20018;-78
2022/07/28 06:26:43;;;;;;;3.47;1.08;;;16.60;99.90;;;;;;4997161;28;20026;-78
2022/07/28 06:29:09;;;;;;;1.10;0.65;;;16.60;99.90;;;;;;4996782;28;20037;-80
2022/07/28 06:31:35;;;;;;;23.42;2.10;;;16.80;99.90;;;;;;5014462;28;20033;-78
2022/07/28 06:34:01;;;;;;;0.68;0.68;;;16.90;99.90;;;;;;4999074;28;20355;-77
2022/07/28 06:36:27;;;;;;;0.73;0.73;;;17.10;99.90;;;;;;5000796;28;20030;-78
2022/07/28 06:38:53;;;;;;;1.95;0.50;;;17.20;99.90;;;;;;5000303;28;20566;-77
2022/07/28 06:41:19;;;;;;;15.10;2.47;;;17.10;99.90;;;;;;5001751;28;20049;-78
2022/07/28 06:43:45;;;;;;;3.50;0.73;;;17.10;99.90;;;;;;5015770;28;20494;-79
2022/07/28 06:46:10;;;;;;;0.45;0.45;;;17.10;99.90;;;;;;4997761;28;20506;-79
2022/07/28 06:48:38;;;;;;;0.35;0.35;;;17.30;99.90;;;;;;5014996;28;20022;-76
2022/07/28 06:51:05;;;;;;;1.35;1.35;;;17.30;99.90;;;;;;5017069;28;20030;-77
2022/07/28 06:53:31;;;;;;;0.30;0.30;;;17.40;99.90;;;;;;5018094;28;20033;-77
2022/07/28 06:55:58;;;;;;;0.75;0.75;;;17.50;99.90;;;;;;5017020;28;20394;-77
2022/07/28 06:58:23;;;;;;;0.50;0.50;;;17.90;99.90;;;;;;5019661;28;20018;-78
2022/07/28 07:00:49;;;;;;;2.00;0.90;;;18.10;99.90;;;;;;5014824;28;20038;-78
2022/07/28 07:03:15;;;;;;;0.63;0.55;;;18.30;99.90;;;;;;5014374;28;20102;-79
2022/07/28 07:05:40;;;;;;;0.65;0.65;;;20.40;99.90;;;;;;5014519;28;20108;-87
2022/07/28 07:08:06;;;;;;;2.63;0.45;;;20.30;99.90;;;;;;5014454;28;20057;-88
2022/07/28 07:10:32;;;;;;;0.35;0.35;;;21.70;94.70;;;;;;4996489;28;20084;-79
2022/07/28 07:12:57;;;;;;;3.97;0.50;;;22.90;84.30;;;;;;4995855;28;20037;-79
2022/07/28 07:15:23;;;;;;;1.52;0.38;;;23.50;76.80;;;;;;5013440;28;20076;-80
2022/07/28 07:17:49;;;;;;;0.32;0.32;;;23.60;72.90;;;;;;4995880;28;20030;-79
2022/07/28 07:20:15;;;;;;;0.47;0.30;;;24.20;69.50;;;;;;5013614;28;20064;-80
2022/07/28 07:22:45;;;;;;;0.68;0.43;;;24.20;70.00;;;;;;5013402;28;20121;-80
2022/07/28 07:25:13;;;;;;;0.55;0.55;;;24.00;67.90;;;;;;5013593;28;20120;-80
2022/07/28 07:27:39;;;;;;;0.98;0.57;;;24.60;66.90;;;;;;4995822;28;20022;-80
2022/07/28 07:30:06;;;;;;;0.38;0.38;;;25.00;66.20;;;;;;5012940;28;20482;-79
2022/07/28 07:32:32;;;;;;;0.63;0.45;;;25.20;65.70;;;;;;5013331;28;20486;-80
2022/07/28 07:34:58;;;;;;;3.05;0.73;;;25.80;64.10;;;;;;4995867;28;20030;-79
2022/07/28 07:37:24;;;;;;;0.38;0.38;;;26.10;62.70;;;;;;5012870;28;20483;-79
2022/07/28 07:39:50;;;;;;;0.20;0.20;;;26.30;61.80;;;;;;4995642;28;20030;-79
2022/07/28 07:42:16;;;;;;;29.55;1.17;;;26.80;61.20;;;;;;4995737;28;20026;-85
2022/07/28 07:44:41;;;;;;;0.75;0.20;;;26.70;58.50;;;;;;4996932;28;20489;-92
2022/07/28 07:47:10;;;;;;;0.20;0.20;;;26.70;59.60;;;;;;4996595;28;20026;-91
2022/07/28 07:49:39;;;;;;;3.20;0.75;;;26.70;59.80;;;;;;5014029;28;20116;-88
2022/07/28 07:52:05;;;;;;;0.50;0.50;;;26.70;60.40;;;;;;4995951;28;20392;-84
2022/07/28 07:54:31;;;;;;;0.40;0.40;;;26.90;60.00;;;;;;5014526;28;20030;-91
2022/07/28 07:56:56;;;;;;;1.20;0.40;;;26.80;59.30;;;;;;5014024;28;20370;-91
2022/07/28 07:59:22;;;;;;;0.30;0.30;;;26.70;59.80;;;;;;4996732;28;20022;-88
2022/07/28 08:01:53;;;;;;;0.65;0.65;;;26.70;59.60;;;;;;4996410;28;20033;-87
2022/07/28 08:04:23;;;;;;;0.10;0.10;;;26.40;60.20;;;;;;5013560;28;20018;-82
2022/07/28 08:06:51;;;;;;;0.20;0.20;;;26.20;59.70;;;;;;5013138;28;20402;-88
2022/07/28 08:09:19;;;;;;;0.25;0.25;;;26.20;60.40;;;;;;4995616;28;20450;-80
2022/07/28 08:11:45;;;;;;;0.20;0.20;;;26.60;59.80;;;;;;5015923;28;20117;-82
2022/07/28 08:14:10;;;;;;;0.40;0.20;;;26.80;59.10;;;;;;5016593;28;20084;-84
2022/07/28 08:16:36;;;;;;;0.30;0.30;;;27.10;59.00;;;;;;4999508;28;20585;-84
2022/07/28 08:19:02;;;;;;;0.30;0.30;;;27.50;59.00;;;;;;4999792;28;20030;-86
2022/07/28 08:21:28;;;;;;;0.90;0.50;;;28.30;57.50;;;;;;4999908;28;20022;-80
2022/07/28 08:23:54;;;;;;;0.50;0.50;;;28.70;56.40;;;;;;4999017;28;20037;-81
2022/07/28 08:26:21;;;;;;;0.25;0.25;;;28.70;55.30;;;;;;4999140;28;20033;-83
2022/07/28 08:28:47;;;;;;;0.40;0.28;;;28.20;56.10;;;;;;4999142;28;20486;-81
2022/07/28 08:31:15;;;;;;;0.17;0.17;;;27.10;58.10;;;;;;5016536;28;20044;-81
2022/07/28 08:33:42;;;;;;;0.37;0.37;;;26.90;59.90;;;;;;5016597;28;20029;-84
2022/07/28 08:36:07;;;;;;;0.20;0.20;;;27.00;59.00;;;;;;4999210;28;20696;-80
2022/07/28 08:38:33;;;;;;;0.22;0.22;;;;;;;;;;5016679;28;20093;-81
2022/07/28 08:41:02;;;;;;;0.32;0.32;;;27.50;57.90;;;;;;5016573;28;20112;-82
2022/07/28 08:43:41;;;;;;;1.30;0.30;;;28.00;58.80;;;;;;5016682;28;20018;-82
2022/07/28 08:46:07;;;;;;;0.43;0.43;;;28.20;58.00;;;;;;4998645;28;20133;-81
2022/07/28 08:48:35;;;;;;;0.70;0.68;;;27.90;57.70;;;;;;4998513;28;20024;-82
2022/07/28 08:51:10;;;;;;;0.28;0.28;;;28.00;57.30;;;;;;5014948;28;20060;-80
2022/07/28 08:53:37;;;;;;;0.20;0.20;;;27.80;57.70;;;;;;4998712;28;20053;-82
2022/07/28 08:56:05;;;;;;;1.85;0.98;;;27.50;57.50;;;;;;4998709;28;20022;-80
2022/07/28 08:58:33;;;;;;;0.40;0.40;;;27.30;58.20;;;;;;5016479;28;20120;-80
2022/07/28 09:01:00;;;;;;;1.00;0.50;;;27.20;58.60;;;;;;4998270;28;20414;-79
2022/07/28 09:03:26;;;;;;;0.38;0.38;;;27.30;58.40;;;;;;5015936;28;20026;-81
2022/07/28 09:05:53;;;;;;;6.18;0.60;;;27.60;57.90;;;;;;5015964;28;20018;-80
2022/07/28 09:08:19;;;;;;;0.60;0.60;;;28.00;57.80;;;;;;4998389;28;20029;-78
2022/07/28 09:10:47;;;;;;;2.70;0.32;;;27.00;60.50;;;;;;4998176;28;20175;-75
2022/07/28 09:13:14;;;;;;;0.60;0.60;;;27.00;59.00;;;;;;4998180;28;20026;-74
2022/07/28 09:15:40;;;;;;;0.88;0.73;;;27.50;58.70;;;;;;4997943;28;20157;-80
2022/07/28 09:18:06;;;;;;;1.55;0.98;;;28.30;58.80;;;;;;4998240;28;20057;-82
2022/07/28 09:20:34;;;;;;;1.55;0.82;;;28.20;59.60;;;;;;4998716;28;20022;-84
2022/07/28 09:23:02;;;;;;;0.68;0.30;;;28.80;58.70;;;;;;4997403;28;20030;-83
2022/07/28 09:25:29;;;;;;;1.25;1.05;;;28.60;55.90;;;;;;4998743;28;20478;-80
2022/07/28 09:28:03;;;;;;;0.70;0.60;;;28.00;56.70;;;;;;5015457;28;20032;-77
2022/07/28 09:30:32;;;;;;;1.42;0.55;;;27.20;58.40;;;;;;5015683;28;20105;-79
2022/07/28 09:33:24;;;;;;;0.38;0.38;;;27.10;59.80;;;;;;5015501;28;20060;-79
2022/07/28 09:35:55;;;;;;;0.50;0.50;;;26.80;60.90;;;;;;5015241;28;20030;-79
2022/07/28 09:38:25;;;;;;;0.75;0.75;;;24.60;58.60;;;;;;5015050;28;20382;-78
2022/07/28 09:41:01;;;;;;;0.63;0.63;;;26.40;62.20;;;;;;5015058;28;20026;-79
2022/07/28 09:43:34;;;;;;;0.30;0.30;;;26.30;62.30;;;;;;5015068;28;20026;-79
2022/07/28 09:46:11;;;;;;;0.40;0.40;;;26.50;61.80;;;;;;4997699;28;20140;-79
2022/07/28 09:48:48;;;;;;;1.85;0.95;;;26.90;61.40;;;;;;4997356;28;20045;-78
2022/07/28 09:51:16;;;;;;;0.50;0.40;;;26.80;61.30;;;;;;5015036;28;20178;-78
2022/07/28 09:53:42;;;;;;;0.40;0.40;;;26.60;60.60;;;;;;5014994;28;20029;-78
2022/07/28 09:56:09;;;;;;;0.22;0.20;;;26.50;61.10;;;;;;5014867;28;20030;-79
2022/07/28 09:58:36;;;;;;;0.57;0.57;;;26.40;62.60;;;;;;4997073;28;20028;-80
2022/07/28 10:01:06;;;;;;;0.55;0.55;;;26.70;61.00;;;;;;5014679;28;20021;-79
2022/07/28 10:03:33;;;;;;;0.28;0.28;;;27.20;62.70;;;;;;5013471;28;20218;-77
2022/07/28 10:06:03;;;;;;;13.13;1.10;;;27.20;61.60;;;;;;4996998;28;20052;-77
2022/07/28 10:08:42;;;;;;;0.20;0.20;;;27.40;60.90;;;;;;5014763;28;20072;-77
2022/07/28 10:11:09;;;;;;;0.73;0.73;;;27.30;60.60;;;;;;5014517;28;20372;-78
2022/07/28 10:13:35;;;;;;;0.82;0.65;;;26.70;61.60;;;;;;5014767;28;20022;-77
2022/07/28 10:16:09;;;;;;;1.73;0.55;;;26.80;61.40;;;;;;4996641;28;20463;-77
2022/07/28 10:18:35;;;;;;;0.55;0.55;;;26.30;61.40;;;;;;5014388;28;20018;-78
2022/07/28 10:21:05;;;;;;;0.50;0.50;;;26.50;63.00;;;;;;5014466;28;20033;-83
2022/07/28 10:23:31;;;;;;;4.28;1.38;;;26.40;61.10;;;;;;5014527;28;20394;-77
2022/07/28 10:25:58;;;;;;;0.20;0.20;;;26.40;61.10;;;;;;5014679;28;20509;-78
2022/07/28 10:28:24;;;;;;;0.85;0.43;;;26.70;60.90;;;;;;5014440;28;20050;-77
2022/07/28 10:30:54;;;;;;;1.17;0.47;;;27.40;59.50;;;;;;5014082;28;20172;-78
2022/07/28 10:33:22;;;;;;;0.40;0.40;;;27.80;59.60;;;;;;5013648;28;20076;-78
2022/07/28 10:35:49;;;;;;;0.30;0.30;;;28.00;57.50;;;;;;5013984;28;20028;-78
2022/07/28 10:38:20;;;;;;;0.30;0.30;;;27.90;57.80;;;;;;5014022;28;20029;-79
2022/07/28 10:40:47;;;;;;;0.45;0.45;;;27.50;58.40;;;;;;4996442;28;20025;-77
2022/07/28 10:43:13;;;;;;;1.40;0.65;;;27.80;60.60;;;;;;5014150;28;20044;-78
2022/07/28 10:45:39;;;;;;;0.45;0.40;;;28.00;58.80;;;;;;5014318;28;20018;-78
2022/07/28 10:48:07;;;;;;;1.08;0.73;;;28.30;59.50;;;;;;5013913;28;20434;-78
2022/07/28 10:50:34;;;;;;;0.50;0.40;;;28.50;56.80;;;;;;5013762;28;20029;-76
2022/07/28 10:53:01;;;;;;;0.45;0.45;;;28.90;57.60;;;;;;5013683;28;20111;-75
2022/07/28 10:55:51;;;;;;;0.68;0.52;;;29.50;56.70;;;;;;5013886;28;20109;-74
2022/07/28 10:58:50;;;;;;;0.30;0.30;;;29.80;56.90;;;;;;5013850;28;20105;-77
2022/07/28 11:01:38;;;;;;;2.15;0.88;;;30.00;54.80;;;;;;4943797;28;20130;-78
2022/07/28 11:04:05;;;;;;;0.10;0.10;;;30.20;55.80;;;;;;5013961;28;20406;-79
2022/07/28 11:06:35;;;;;;;0.40;0.40;;;30.20;52.50;;;;;;4996176;28;20437;-79
2022/07/28 11:09:16;;;;;;;1.15;0.40;;;29.20;53.40;;;;;;5013602;28;20025;-78
2022/07/28 11:11:46;;;;;;;0.35;0.35;;;29.30;54.30;;;;;;5013540;28;20128;-79
2022/07/28 11:14:28;;;;;;;0.20;0.20;;;29.40;53.70;;;;;;4995925;28;20025;-77
2022/07/28 11:17:00;;;;;;;0.20;0.20;;;30.00;55.50;;;;;;4995696;28;20125;-77
2022/07/28 11:19:27;;;;;;;0.50;0.50;;;30.10;52.80;;;;;;5013585;28;20095;-78
2022/07/28 11:22:20;;;;;;;0.43;0.30;;;30.00;52.20;;;;;;5013534;28;20045;-79
2022/07/28 11:25:01;;;;;;;0.40;0.40;;;30.40;51.60;;;;;;4995651;28;20034;-80
2022/07/28 11:27:41;;;;;;;0.68;0.50;;;30.60;52.40;;;;;;5013538;28;20022;-79
2022/07/28 11:30:36;;;;;;;0.55;0.55;;;30.50;51.80;;;;;;4995606;28;20022;-79
2022/07/28 11:33:03;;;;;;;0.55;0.55;;;30.50;53.80;;;;;;5006020;28;20465;-78
2022/07/28 11:35:30;;;;;;;0.30;0.30;;;31.30;51.00;;;;;;5013201;28;20049;-79
2022/07/28 11:38:02;;;;;;;0.73;0.73;;;32.00;50.60;;;;;;5013287;28;20076;-78
2022/07/28 11:40:57;;;;;;;0.20;0.20;;;32.60;50.40;;;;;;4995840;28;20041;-78
2022/07/28 11:43:22;;;;;;;1.65;0.80;;;32.20;49.10;;;;;;4998489;28;20038;-78
2022/07/28 11:46:00;;;;;;;1.00;0.70;;;32.10;49.20;;;;;;4997155;28;20026;-79
2022/07/28 11:48:28;;;;;;;0.65;0.65;;;32.60;48.80;;;;;;5017169;28;20076;-78
2022/07/28 11:51:02;;;;;;;0.80;0.80;;;32.60;49.10;;;;;;5017621;28;20029;-77
2022/07/28 11:53:41;;;;;;;0.43;0.43;;;32.20;49.20;;;;;;4999663;28;20061;-79
2022/07/28 11:56:24;;;;;;;0.40;0.40;;;31.70;49.50;;;;;;4999599;28;20033;-78
2022/07/28 11:59:05;;;;;;;1.48;0.50;;;31.50;49.20;;;;;;5017087;28;20072;-78
2022/07/28 12:01:32;;;;;;;0.77;0.60;;;31.70;50.20;;;;;;4999313;28;20030;-75
2022/07/28 12:03:59;;;;;;;0.30;0.28;;;32.70;48.70;;;;;;4999289;28;20117;-80
2022/07/28 12:06:36;;;;;;;0.30;0.30;;;33.80;46.60;;;;;;4999162;28;20030;-79
2022/07/28 12:09:06;;;;;;;0.15;0.15;;;33.30;47.50;;;;;;5016715;28;20029;-80
2022/07/28 12:11:42;;;;;;;0.38;0.30;;;33.10;47.50;;;;;;4999163;28;20045;-79
2022/07/28 12:14:10;;;;;;;0.50;0.50;;;32.80;47.90;;;;;;5017118;28;20057;-80
2022/07/28 12:16:44;;;;;;;0.75;0.47;;;33.10;49.30;;;;;;5016745;28;20042;-80
2022/07/28 12:19:13;;;;;;;0.52;0.20;;;33.00;47.00;;;;;;5016759;28;20018;-79
2022/07/28 12:21:47;;;;;;;0.43;0.43;;;32.90;47.20;;;;;;4999083;28;20502;-79
2022/07/28 12:24:15;;;;;;;1.00;0.50;;;33.10;46.20;;;;;;5016558;28;20053;-79
2022/07/28 12:26:41;;;;;;;0.70;0.70;;;32.90;46.50;;;;;;5016678;28;20113;-83
2022/07/28 12:29:11;;;;;;;0.30;0.30;;;32.60;48.20;;;;;;5016748;28;20018;-78
2022/07/28 12:31:37;;;;;;;1.90;0.43;;;32.40;46.10;;;;;;5016607;28;20025;-78
2022/07/28 12:34:10;;;;;;;0.70;0.30;;;32.40;47.70;;;;;;5016493;28;20546;-81
2022/07/28 12:36:37;;;;;;;1.13;0.55;;;33.00;46.10;;;;;;5016466;28;20136;-80
2022/07/28 12:39:05;;;;;;;3.95;0.52;;;33.00;46.40;;;;;;4998644;28;20030;-80
2022/07/28 12:41:35;;;;;;;1.17;0.20;;;33.10;47.30;;;;;;5016686;28;20042;-83
2022/07/28 12:44:02;;;;;;;2.47;1.20;;;33.70;45.10;;;;;;4998713;28;20026;-77
2022/07/28 12:46:29;;;;;;;0.70;0.30;;;33.30;45.60;;;;;;5001806;28;20496;-81
2022/07/28 12:48:57;;;;;;;0.40;0.40;;;33.50;46.60;;;;;;4998837;28;20107;-82
2022/07/28 12:51:39;;;;;;;1.03;0.60;;;34.30;47.30;;;;;;5016014;28;20041;-79
2022/07/28 12:54:13;;;;;;;0.47;0.30;;;34.60;44.60;;;;;;5016177;28;20021;-76
2022/07/28 12:56:45;;;;;;;0.93;0.65;;;33.40;44.60;;;;;;4998014;28;20030;-77
2022/07/28 12:59:14;;;;;;;0.47;0.47;;;32.50;45.00;;;;;;5015884;28;20026;-79